Time;durP1;ratioP1;P1;durP2;ratioP2;P2;SDS_P1;SDS_P2;PMS_P1;PMS_P2;Temp;Humidity;BMP_temperature;BMP_pressure;BME280_temperature;BME280_humidity;BME280_pressure;Samples;Min_cycle;Max_cycle;Signal;HPM_P1;HPM_P2
2022/07/17 00:00:17;;;;;;;3.60;2.10;;;;;;;10.92;83.83;97315.02;108792;1264;22550;-81
2022/07/17 00:03:10;;;;;;;3.20;2.00;;;;;;;11.00;83.98;97316.13;108791;1263;23827;-81
2022/07/17 00:05:42;;;;;;;2.00;1.70;;;;;;;11.01;84.02;97316.28;105289;1264;4406274;-81
2022/07/17 00:08:19;;;;;;;2.90;2.10;;;;;;;10.99;83.87;97319.95;108593;1264;22526;-81
2022/07/17 00:10:54;;;;;;;2.70;2.00;;;;;;;10.98;83.95;97325.35;108736;1264;22572;-81
2022/07/17 00:13:27;;;;;;;2.90;2.20;;;;;;;10.97;84.73;97323.91;108756;1264;23950;-81
2022/07/17 00:16:05;;;;;;;3.50;2.10;;;;;;;11.08;85.26;97320.67;108512;1264;116309;-81
2022/07/17 00:18:42;;;;;;;2.80;2.20;;;;;;;11.19;85.68;97321.34;108739;1263;24061;-81
2022/07/17 00:21:18;;;;;;;4.50;2.20;;;;;;;11.29;85.86;97324.10;108715;1264;22545;-81
2022/07/17 00:23:57;;;;;;;2.70;1.90;;;;;;;11.42;85.70;97325.50;108652;1264;22520;-81
2022/07/17 00:26:33;;;;;;;4.50;2.20;;;;;;;11.43;85.59;97323.85;108404;1264;125885;-81
2022/07/17 00:29:10;;;;;;;3.70;2.10;;;;;;;11.46;85.44;97325.33;108835;1264;22550;-81
2022/07/17 00:31:47;;;;;;;3.30;2.10;;;;;;;11.49;85.41;97328.83;108867;1264;25216;-81
2022/07/17 00:34:24;;;;;;;3.60;2.50;;;;;;;11.50;85.26;97329.89;108794;1264;22683;-81
2022/07/17 00:37:11;;;;;;;2.60;2.10;;;;;;;11.50;85.45;97324.42;108505;1264;146335;-82
2022/07/17 00:39:44;;;;;;;4.80;2.30;;;;;;;11.51;85.17;97323.30;108852;1264;22772;-82
2022/07/17 00:42:19;;;;;;;3.50;1.90;;;;;;;11.46;84.99;97326.65;108886;1264;22548;-82
2022/07/17 00:44:52;;;;;;;4.30;1.90;;;;;;;11.44;84.98;97326.83;108844;1263;23948;-82
2022/07/17 00:47:57;;;;;;;3.10;2.10;;;;;;;11.49;85.43;97329.52;108270;1264;173811;-82
2022/07/17 00:50:35;;;;;;;1.90;1.70;;;;;;;11.56;85.43;97340.63;108832;1263;22662;-81
2022/07/17 00:53:12;;;;;;;2.30;2.00;;;;;;;11.60;85.13;97342.69;108815;1264;23704;-81
2022/07/17 00:55:59;;;;;;;;;;;;;;;11.56;84.65;97345.84;108562;1264;120165;-81
2022/07/17 00:58:45;;;;;;;3.40;1.80;;;;;;;11.49;84.39;97346.77;108825;1264;22554;-81
2022/07/17 01:01:22;;;;;;;3.40;1.70;;;;;;;11.43;84.53;97344.98;108881;1263;22618;-81
2022/07/17 01:03:58;;;;;;;2.80;2.20;;;;;;;11.39;84.86;97345.17;108853;1264;24997;-81
2022/07/17 01:06:32;;;;;;;3.20;2.00;;;;;;;11.31;84.77;97346.46;103117;1262;5175627;-82
2022/07/17 01:09:04;;;;;;;2.80;2.40;;;;;;;11.25;84.66;97344.98;108872;1263;22558;-81
2022/07/17 01:11:48;;;;;;;3.00;2.00;;;;;;;11.13;85.04;97350.77;108883;1264;23848;-81
2022/07/17 01:14:30;;;;;;;2.90;2.10;;;;;;;11.07;84.90;97351.62;108883;1263;22549;-81
2022/07/17 01:17:07;;;;;;;2.90;1.70;;;;;;;11.05;84.87;97351.99;107469;1262;1618860;-81
2022/07/17 01:19:39;;;;;;;2.80;2.10;;;;;;;11.14;85.12;97351.22;108772;1263;22551;-81
2022/07/17 01:22:15;;;;;;;3.40;2.00;;;;;;;11.14;84.98;97352.23;108798;1264;22566;-81
2022/07/17 01:25:00;;;;;;;2.60;2.10;;;;;;;11.18;84.92;97351.85;108794;1264;22554;-81
2022/07/17 01:27:35;;;;;;;3.30;2.30;;;;;;;11.19;84.77;97353.71;106546;1264;2906307;-81
2022/07/17 01:30:11;;;;;;;3.60;2.30;;;;;;;11.14;84.80;97355.15;108907;1264;22603;-81
2022/07/17 01:32:46;;;;;;;2.50;1.90;;;;;;;11.15;84.85;97351.60;108891;1264;22654;-81
2022/07/17 01:35:22;;;;;;;2.50;2.00;;;;;;;11.20;84.91;97351.06;108679;1262;100434;-81
2022/07/17 01:37:58;;;;;;;2.60;1.90;;;;;;;11.25;84.86;97350.06;108813;1264;22532;-81
2022/07/17 01:40:37;;;;;;;3.70;2.00;;;;;;;11.25;84.72;97348.34;108845;1264;26495;-81
2022/07/17 01:43:09;;;;;;;3.20;1.90;;;;;;;11.24;84.68;97345.33;108736;1264;24385;-81
2022/07/17 01:45:43;;;;;;;2.40;2.10;;;;;;;11.21;84.58;97344.74;108528;1264;146021;-81
2022/07/17 01:48:26;;;;;;;3.70;2.20;;;;;;;11.18;84.56;97344.36;108746;1264;25426;-81
2022/07/17 01:50:57;;;;;;;3.40;2.00;;;;;;;11.28;85.00;97343.90;108787;1264;22774;-81
2022/07/17 01:53:37;;;;;;;2.20;1.70;;;;;;;11.31;84.52;97345.92;108525;1263;22541;-81
2022/07/17 01:56:29;;;;;;;3.30;2.00;;;;;;;11.27;84.29;97341.67;106707;1264;2474752;-81
2022/07/17 01:59:22;;;;;;;;;;;;;;;;;;;;;
2022/07/17 02:01:56;;;;;;;3.40;2.10;;;;;;;11.24;84.11;97348.39;108877;1264;25401;-81
2022/07/17 02:04:32;;;;;;;3.10;1.90;;;;;;;11.22;83.94;97347.34;108850;1264;22535;-80
2022/07/17 02:07:11;;;;;;;2.50;2.00;;;;;;;11.15;83.94;97349.20;108645;1264;105255;-81
2022/07/17 02:09:42;;;;;;;3.10;1.80;;;;;;;11.14;84.19;97346.77;108838;1263;22552;-81
2022/07/17 02:12:23;;;;;;;2.30;1.80;;;;;;;11.12;84.14;97349.14;108843;1264;24366;-81
2022/07/17 02:15:12;;;;;;;3.40;1.90;;;;;;;11.08;84.08;97353.69;108732;1264;22555;-81
2022/07/17 02:17:47;;;;;;;4.10;2.30;;;;;;;11.04;84.15;97353.74;108858;1264;25327;-81
2022/07/17 02:20:22;;;;;;;3.90;1.90;;;;;;;11.03;84.11;97358.46;108900;1264;23846;-81
2022/07/17 02:22:53;;;;;;;2.40;1.70;;;;;;;10.94;83.91;97358.65;108885;1264;22548;-81
2022/07/17 02:25:35;;;;;;;4.40;2.00;;;;;;;10.92;83.84;97356.63;108650;1264;85306;-80
2022/07/17 02:28:07;;;;;;;4.00;1.80;;;;;;;10.90;83.80;97355.73;108853;1264;22523;-81
2022/07/17 02:30:42;;;;;;;2.60;1.80;;;;;;;10.85;83.69;97357.62;108839;1264;22523;-81
2022/07/17 02:33:21;;;;;;;2.90;1.80;;;;;;;10.84;84.00;97354.87;108880;1264;22542;-81
2022/07/17 02:36:06;;;;;;;2.10;1.80;;;;;;;10.84;83.85;97354.86;108624;1264;115068;-81
2022/07/17 02:38:40;;;;;;;4.20;2.10;;;;;;;10.84;83.83;97352.23;108869;1264;22563;-81
2022/07/17 02:41:15;;;;;;;3.70;1.80;;;;;;;10.90;83.97;97357.64;108864;1264;22535;-81
2022/07/17 02:44:12;;;;;;;2.30;1.90;;;;;;;10.90;83.78;97356.64;108909;1263;24406;-81
2022/07/17 02:46:50;;;;;;;2.60;1.80;;;;;;;10.86;83.63;97354.88;108642;1264;103633;-82
2022/07/17 02:49:24;;;;;;;3.10;1.80;;;;;;;10.83;83.61;97353.09;108822;1264;26606;-81
2022/07/17 02:51:55;;;;;;;3.40;1.90;;;;;;;10.84;83.68;97353.96;108850;1264;22565;-81
2022/07/17 02:54:34;;;;;;;2.40;1.90;;;;;;;10.81;83.72;97356.11;108874;1264;23273;-81
2022/07/17 02:57:14;;;;;;;2.60;1.80;;;;;;;10.81;84.01;97357.55;108614;1264;110689;-81
2022/07/17 02:59:56;;;;;;;3.10;2.20;;;;;;;10.80;84.10;97359.94;108901;1264;22678;-81
2022/07/17 03:02:30;;;;;;;2.50;2.00;;;;;;;10.74;84.29;97365.60;108890;1264;22548;-81
2022/07/17 03:05:10;;;;;;;2.90;2.00;;;;;;;10.67;84.59;97360.84;108831;1264;25488;-80
2022/07/17 03:07:46;;;;;;;7.70;2.40;;;;;;;10.62;84.58;97363.76;108850;1264;23010;-81
2022/07/17 03:10:23;;;;;;;4.00;2.00;;;;;;;10.63;84.87;97367.46;108829;1264;22521;-80
2022/07/17 03:12:58;;;;;;;2.80;2.00;;;;;;;10.66;84.86;97368.59;108849;1264;22705;-80
2022/07/17 03:15:34;;;;;;;5.50;2.00;;;;;;;10.64;84.73;97369.91;108629;1264;94733;-80
2022/07/17 03:18:06;;;;;;;3.90;2.20;;;;;;;10.64;84.65;97381.95;108827;1264;22616;-81
2022/07/17 03:20:49;;;;;;;3.60;2.00;;;;;;;10.65;84.74;97381.95;108817;1264;22539;-80
2022/07/17 03:23:19;;;;;;;;;;;;;;;10.74;84.95;97386.98;108803;1264;22505;-80
2022/07/17 03:25:54;;;;;;;4.10;1.90;;;;;;;10.75;84.80;97390.85;108660;1264;112736;-80
2022/07/17 03:28:31;;;;;;;5.50;2.10;;;;;;;10.74;84.80;97390.54;108881;1264;23427;-80
2022/07/17 03:31:09;;;;;;;3.80;1.90;;;;;;;10.75;84.68;97392.71;108829;1262;22558;-80
2022/07/17 03:33:45;;;;;;;2.40;1.50;;;;;;;10.65;84.29;97396.69;108831;1264;22742;-80
2022/07/17 03:36:22;;;;;;;2.20;1.50;;;;;;;10.69;84.55;97403.08;108656;1264;85004;-80
2022/07/17 03:38:56;;;;;;;3.00;1.90;;;;;;;10.77;84.89;97406.88;108865;1264;25286;-80
2022/07/17 03:41:33;;;;;;;2.90;2.40;;;;;;;10.85;85.13;97404.58;108867;1264;22535;-80
2022/07/17 03:44:13;;;;;;;3.80;1.90;;;;;;;10.95;85.09;97404.60;108832;1264;22541;-80
2022/07/17 03:46:46;;;;;;;3.00;1.90;;;;;;;11.08;85.19;97402.77;108593;1264;105208;-80
2022/07/17 03:49:20;;;;;;;3.20;2.00;;;;;;;11.18;85.12;97406.21;108828;1263;22566;-80
2022/07/17 03:51:54;;;;;;;3.80;2.40;;;;;;;11.26;85.15;97408.40;108869;1264;22731;-80
2022/07/17 03:54:28;;;;;;;3.40;2.00;;;;;;;11.34;84.98;97409.42;108833;1264;24038;-80
2022/07/17 03:57:08;;;;;;;3.50;2.00;;;;;;;11.40;85.01;97403.27;107630;1263;1366035;-80
2022/07/17 03:59:50;;;;;;;2.70;1.70;;;;;;;11.49;84.85;97404.14;108782;1264;22697;-80
2022/07/17 04:02:26;;;;;;;5.20;2.10;;;;;;;11.54;84.70;97405.20;108754;1263;22547;-80
2022/07/17 04:05:09;;;;;;;2.40;1.90;;;;;;;11.59;84.59;97409.94;108767;1264;22530;-80
2022/07/17 04:07:46;;;;;;;3.10;1.60;;;;;;;11.72;84.70;97412.91;108695;1264;23129;-80
2022/07/17 04:10:18;;;;;;;1.90;1.40;;;;;;;11.81;84.41;97415.01;108731;1264;22516;-80
2022/07/17 04:12:52;;;;;;;2.90;1.90;;;;;;;11.79;84.17;97416.06;108610;1264;25375;-80
2022/07/17 04:18:09;;;;;;;3.40;1.70;;;;;;;11.79;83.95;97423.45;108588;1264;22774;-80
2022/07/17 04:20:52;;;;;;;3.70;1.70;;;;;;;11.77;84.01;97425.30;108733;1263;24214;-80
2022/07/17 04:23:26;;;;;;;2.50;1.70;;;;;;;11.79;84.04;97421.22;108699;1264;24320;-80
2022/07/17 04:26:00;;;;;;;4.60;1.90;;;;;;;11.82;83.98;97428.58;106245;1264;3118616;-80
2022/07/17 04:28:37;;;;;;;3.80;1.60;;;;;;;11.85;83.91;97428.48;108848;1264;24447;-80
2022/07/17 04:31:13;;;;;;;4.80;1.70;;;;;;;11.93;83.88;97430.33;108836;1264;23853;-81
2022/07/17 04:33:57;;;;;;;3.20;1.70;;;;;;;12.07;83.79;97431.95;108822;1264;22552;-81
2022/07/17 04:36:33;;;;;;;4.40;2.00;;;;;;;12.15;83.46;97426.48;108652;1264;93458;-80
2022/07/17 04:39:04;;;;;;;2.10;1.30;;;;;;;12.19;83.07;97431.30;108872;1263;22614;-81
2022/07/17 04:41:38;;;;;;;2.60;1.30;;;;;;;12.23;82.85;97436.14;108855;1264;22535;-81
2022/07/17 04:44:12;;;;;;;2.60;1.30;;;;;;;12.30;82.77;97437.05;108852;1264;22774;-80
2022/07/17 04:46:43;;;;;;;4.70;1.60;;;;;;;12.36;82.37;97432.77;107322;1264;1859388;-81
2022/07/17 04:49:17;;;;;;;2.30;1.30;;;;;;;12.41;81.98;97435.11;108753;1263;22595;-81
2022/07/17 04:51:49;;;;;;;2.90;1.30;;;;;;;12.47;82.13;97441.90;108837;1263;22985;-81
2022/07/17 04:54:26;;;;;;;3.20;1.60;;;;;;;12.54;81.62;97437.89;108801;1264;23189;-81
2022/07/17 04:57:12;;;;;;;2.40;1.60;;;;;;;12.53;81.21;97440.02;108593;1263;84898;-81
2022/07/17 04:59:53;;;;;;;3.10;1.30;;;;;;;12.51;81.35;97442.36;108762;1264;22532;-80
2022/07/17 05:02:29;;;;;;;3.70;1.20;;;;;;;12.57;81.50;97444.86;108836;1264;22542;-80
2022/07/17 05:05:02;;;;;;;2.60;1.00;;;;;;;12.68;81.48;97447.38;108861;1264;22528;-81
2022/07/17 05:07:39;;;;;;;2.10;0.90;;;;;;;12.78;81.21;97451.06;108879;1264;22575;-81
2022/07/17 05:10:14;;;;;;;2.30;1.30;;;;;;;12.87;80.88;97451.52;108774;1264;25240;-81
2022/07/17 05:12:55;;;;;;;3.30;1.50;;;;;;;13.01;80.59;97460.25;108834;1264;23131;-81
2022/07/17 05:15:28;;;;;;;4.20;2.00;;;;;;;13.09;80.05;97459.73;108707;1264;87643;-80
2022/07/17 05:18:06;;;;;;;3.50;1.30;;;;;;;13.18;79.76;97459.13;108884;1263;24203;-81
2022/07/17 05:20:42;;;;;;;3.00;1.10;;;;;;;13.28;79.35;97461.98;108840;1264;22538;-81
2022/07/17 05:23:17;;;;;;;3.30;1.20;;;;;;;13.37;78.52;97456.98;108845;1264;22510;-81
2022/07/17 05:25:50;;;;;;;5.10;1.60;;;;;;;13.43;78.14;97462.32;108603;1264;77996;-80
2022/07/17 05:28:21;;;;;;;3.30;1.30;;;;;;;13.49;77.21;97462.64;108870;1262;22578;-80
2022/07/17 05:30:55;;;;;;;3.30;1.10;;;;;;;13.43;76.12;97470.48;108860;1263;24416;-80
2022/07/17 05:33:32;;;;;;;3.20;1.30;;;;;;;13.43;76.55;97471.96;108861;1263;23311;-80
2022/07/17 05:36:21;;;;;;;4.50;1.40;;;;;;;13.56;76.48;97473.64;108640;1264;95934;-80
2022/07/17 05:38:56;;;;;;;2.90;1.20;;;;;;;13.81;76.71;97471.55;108875;1264;22538;-80
2022/07/17 05:41:34;;;;;;;2.30;1.30;;;;;;;13.95;76.08;97469.91;108861;1264;22545;-80
2022/07/17 05:44:11;;;;;;;3.40;1.10;;;;;;;13.99;76.09;97475.70;108851;1264;22527;-81
2022/07/17 05:46:56;;;;;;;5.50;1.60;;;;;;;14.09;76.11;97477.96;107190;1263;2057243;-80
2022/07/17 05:49:33;;;;;;;2.70;1.40;;;;;;;14.19;75.86;97480.64;108845;1264;22549;-80
2022/07/17 05:52:08;;;;;;;3.10;1.40;;;;;;;14.40;76.18;97480.10;108881;1264;22619;-80
2022/07/17 05:54:44;;;;;;;3.70;1.40;;;;;;;14.52;75.50;97480.65;108857;1264;26593;-80
2022/07/17 05:57:19;;;;;;;3.60;1.50;;;;;;;14.76;75.66;97481.80;108613;1264;113004;-81
2022/07/17 05:59:56;;;;;;;3.10;1.40;;;;;;;14.59;74.60;97482.18;108850;1264;23032;-80
2022/07/17 06:02:32;;;;;;;3.20;1.30;;;;;;;14.51;75.14;97486.05;108873;1264;27079;-81
2022/07/17 06:05:06;;;;;;;4.30;1.20;;;;;;;14.88;74.92;97487.05;108856;1264;25250;-81
2022/07/17 06:07:38;;;;;;;3.70;1.20;;;;;;;15.41;74.81;97485.13;108819;1264;22612;-81
2022/07/17 06:10:16;;;;;;;2.00;1.10;;;;;;;15.65;73.13;97486.29;108832;1264;22546;-81
2022/07/17 06:12:58;;;;;;;5.40;1.60;;;;;;;15.88;72.55;97486.16;108807;1264;22555;-81
2022/07/17 06:15:29;;;;;;;3.40;1.60;;;;;;;16.00;71.24;97487.85;108675;1263;74167;-81
2022/07/17 06:18:15;;;;;;;4.40;1.40;;;;;;;15.61;70.55;97491.71;108797;1264;22641;-81
2022/07/17 06:20:51;;;;;;;2.90;1.30;;;;;;;15.17;70.41;97502.48;108836;1264;22552;-81
2022/07/17 06:23:27;;;;;;;5.50;1.20;;;;;;;14.89;71.24;97505.84;108820;1264;22522;-81
2022/07/17 06:26:19;;;;;;;2.80;1.30;;;;;;;14.80;71.94;97507.00;108546;1264;117688;-80
2022/07/17 06:28:56;;;;;;;2.80;1.00;;;;;;;14.72;71.31;97506.29;108849;1264;22526;-80
2022/07/17 06:31:27;;;;;;;2.70;1.40;;;;;;;14.57;71.78;97511.34;108865;1264;25205;-80
2022/07/17 06:34:01;;;;;;;5.20;1.40;;;;;;;14.62;72.21;97511.35;108832;1264;22606;-80
2022/07/17 06:36:36;;;;;;;3.10;1.10;;;;;;;14.90;72.10;97514.69;108676;1264;106403;-81
2022/07/17 06:39:16;;;;;;;3.50;1.10;;;;;;;15.15;71.80;97517.83;108738;1264;23849;-81
2022/07/17 06:42:07;;;;;;;4.20;1.40;;;;;;;15.38;72.11;97522.30;108784;1264;22576;-80
2022/07/17 06:44:44;;;;;;;4.50;1.50;;;;;;;15.86;70.66;97521.05;108787;1264;22518;-81
2022/07/17 06:47:20;;;;;;;4.70;1.30;;;;;;;16.39;69.91;97522.59;108563;1264;99638;-81
2022/07/17 06:49:54;;;;;;;6.20;1.60;;;;;;;16.20;68.64;97519.90;108866;1264;23794;-81
2022/07/17 06:52:31;;;;;;;8.40;1.60;;;;;;;16.53;68.00;97519.77;108805;1264;22614;-81
2022/07/17 06:55:11;;;;;;;4.60;1.40;;;;;;;16.39;67.28;97517.94;108878;1264;22535;-81
2022/07/17 06:57:45;;;;;;;6.10;1.40;;;;;;;16.72;67.00;97518.20;108840;1264;25264;-81
2022/07/17 07:00:18;;;;;;;2.50;1.10;;;;;;;16.68;66.88;97520.84;108871;1262;22570;-80
2022/07/17 07:03:03;;;;;;;3.70;1.30;;;;;;;16.56;66.19;97524.23;108838;1264;24077;-81
2022/07/17 07:05:39;;;;;;;2.40;1.30;;;;;;;15.87;65.02;97525.15;106098;1264;3316012;-81
2022/07/17 07:08:12;;;;;;;3.20;1.30;;;;;;;16.06;66.95;97527.20;108826;1264;22526;-81
2022/07/17 07:10:45;;;;;;;4.60;1.30;;;;;;;16.64;65.90;97526.08;108860;1264;25463;-82
2022/07/17 07:13:28;;;;;;;5.10;1.30;;;;;;;18.67;66.07;97523.95;108805;1264;23361;-82
2022/07/17 07:16:03;;;;;;;5.40;1.30;;;;;;;20.93;60.31;97518.95;108628;1264;86650;-82
2022/07/17 07:18:39;;;;;;;4.70;1.20;;;;;;;22.60;57.77;97519.23;108838;1264;22741;-82
2022/07/17 07:21:11;;;;;;;2.50;1.20;;;;;;;22.86;50.97;97521.95;108836;1264;22532;-82
2022/07/17 07:23:54;;;;;;;4.90;1.80;;;;;;;21.28;51.92;97527.26;108849;1264;22563;-82
2022/07/17 07:26:50;;;;;;;3.10;1.20;;;;;;;20.77;53.29;97525.23;108588;1264;101158;-82
2022/07/17 07:29:21;;;;;;;4.50;1.20;;;;;;;19.54;52.93;97526.89;108758;1264;22549;-82
2022/07/17 07:32:00;;;;;;;3.50;0.90;;;;;;;18.41;54.60;97530.27;108746;1264;22577;-82
2022/07/17 07:34:48;;;;;;;4.80;1.50;;;;;;;18.69;56.64;97528.96;108748;1264;22526;-82
2022/07/17 07:37:20;;;;;;;2.70;0.90;;;;;;;18.33;56.18;97531.04;108657;1264;80552;-82
2022/07/17 07:40:07;;;;;;;;;;;;;;;;;;;;;
2022/07/17 07:42:48;;;;;;;2.60;1.00;;;;;;;18.14;58.09;97530.77;108867;1264;22542;-82
2022/07/17 07:45:23;;;;;;;;;;;;;;;18.98;55.67;97525.33;108644;1264;116166;-81
2022/07/17 07:47:56;;;;;;;3.90;1.40;;;;;;;20.05;54.56;97526.95;108804;1264;22554;-82
2022/07/17 07:50:46;;;;;;;3.60;0.90;;;;;;;20.91;53.29;97523.98;108820;1264;22578;-82
2022/07/17 07:53:19;;;;;;;3.00;0.90;;;;;;;20.57;51.77;97528.44;108837;1264;22550;-82
2022/07/17 07:55:55;;;;;;;3.30;1.40;;;;;;;19.46;53.16;97533.38;108608;1264;103934;-82
2022/07/17 07:58:39;;;;;;;3.30;1.00;;;;;;;20.60;52.60;97525.98;108851;1264;23484;-82
2022/07/17 08:01:17;;;;;;;3.80;1.60;;;;;;;20.03;51.06;97522.41;108856;1264;22546;-82
2022/07/17 08:03:59;;;;;;;2.70;0.80;;;;;;;21.18;52.38;97522.52;108786;1264;22529;-82
2022/07/17 08:06:32;;;;;;;1.60;1.00;;;;;;;21.03;48.72;97525.36;108440;1264;92596;-83
2022/07/17 08:09:13;;;;;;;3.20;0.90;;;;;;;20.07;50.95;97529.98;108854;1264;22542;-82
2022/07/17 08:11:48;;;;;;;2.60;0.80;;;;;;;20.64;50.27;97529.41;108874;1264;24239;-83
2022/07/17 08:14:22;;;;;;;2.70;1.10;;;;;;;23.16;49.96;97528.36;108839;1263;22597;-83
2022/07/17 08:16:56;;;;;;;2.60;0.90;;;;;;;24.42;44.40;97522.89;104366;1264;5401532;-84
2022/07/17 08:19:31;;;;;;;1.80;0.90;;;;;;;24.81;42.78;97523.92;108834;1264;23222;-84
2022/07/17 08:22:07;;;;;;;2.20;0.90;;;;;;;25.34;40.55;97531.38;108835;1262;22526;-82
2022/07/17 08:24:38;;;;;;;2.60;0.90;;;;;;;25.42;40.87;97534.12;108829;1264;22552;-83
2022/07/17 08:27:10;;;;;;;2.70;0.90;;;;;;;24.11;41.06;97537.61;107186;1264;2039588;-84
2022/07/17 08:29:42;;;;;;;4.90;1.10;;;;;;;24.63;43.84;97538.57;108822;1264;22679;-84
2022/07/17 08:32:14;;;;;;;2.70;0.90;;;;;;;27.85;42.49;97537.09;108862;1264;25300;-84
2022/07/17 08:34:46;;;;;;;1.70;0.60;;;;;;;29.23;37.98;97533.28;108842;1264;25560;-84
2022/07/17 08:37:20;;;;;;;3.30;0.80;;;;;;;29.23;34.12;97539.54;108578;1264;91427;-85
2022/07/17 08:39:52;;;;;;;2.30;0.70;;;;;;;28.17;33.19;97542.20;108767;1264;22635;-83
2022/07/17 08:42:31;;;;;;;2.70;0.90;;;;;;;28.38;34.43;97548.00;108782;1264;22646;-82
2022/07/17 08:45:03;;;;;;;2.40;0.60;;;;;;;29.03;33.35;97542.88;108772;1264;22650;-82
2022/07/17 08:47:42;;;;;;;2.60;1.30;;;;;;;29.01;33.39;97550.38;108784;1264;26596;-83
2022/07/17 08:50:22;;;;;;;1.70;0.70;;;;;;;27.44;35.87;97551.91;108806;1264;22568;-82
2022/07/17 08:53:01;;;;;;;1.40;0.50;;;;;;;27.12;32.64;97552.92;108771;1264;22566;-83
2022/07/17 08:55:35;;;;;;;2.40;0.80;;;;;;;23.53;35.69;97569.25;108552;1264;132581;-83
2022/07/17 08:58:07;;;;;;;2.80;0.70;;;;;;;22.88;39.15;97569.48;108795;1264;22893;-84
2022/07/17 09:00:40;;;;;;;2.90;0.80;;;;;;;22.87;38.73;97565.73;108772;1264;22548;-84
2022/07/17 09:03:12;;;;;;;2.10;0.70;;;;;;;22.96;40.06;97565.17;108796;1264;22575;-84
2022/07/17 09:05:48;;;;;;;1.90;0.80;;;;;;;24.80;38.92;97561.77;108662;1264;71573;-83
2022/07/17 09:08:32;;;;;;;2.50;0.70;;;;;;;24.29;38.10;97557.59;108801;1264;23194;-83
2022/07/17 09:11:11;;;;;;;2.30;0.90;;;;;;;23.19;39.52;97561.31;108845;1263;23003;-82
2022/07/17 09:13:50;;;;;;;3.30;0.90;;;;;;;22.32;40.74;97564.70;108857;1264;22585;-83
2022/07/17 09:16:23;;;;;;;5.20;0.70;;;;;;;22.22;41.88;97564.42;108701;1264;73756;-83
2022/07/17 09:19:13;;;;;;;4.10;1.00;;;;;;;21.50;41.59;97561.80;108805;1264;22568;-82
2022/07/17 09:21:45;;;;;;;3.20;0.80;;;;;;;19.94;42.98;97564.68;108825;1264;22572;-82
2022/07/17 09:24:18;;;;;;;3.30;0.80;;;;;;;19.34;44.66;97569.84;108821;1263;24423;-82
2022/07/17 09:26:55;;;;;;;1.70;0.70;;;;;;;19.61;46.45;97569.09;108595;1263;113591;-82
2022/07/17 09:29:34;;;;;;;3.10;0.70;;;;;;;20.04;46.35;97568.13;108799;1264;22789;-82
2022/07/17 09:32:10;;;;;;;3.10;0.80;;;;;;;19.71;45.73;97573.67;108774;1264;24225;-82
2022/07/17 09:34:55;;;;;;;2.40;0.80;;;;;;;19.78;46.09;97578.88;108757;1264;22590;-82
2022/07/17 09:37:32;;;;;;;1.60;0.50;;;;;;;19.75;44.64;97570.87;108634;1264;84939;-82
2022/07/17 09:40:10;;;;;;;2.30;0.80;;;;;;;19.42;45.75;97577.68;108816;1264;23949;-81
2022/07/17 09:42:47;;;;;;;1.20;0.60;;;;;;;19.73;46.05;97570.11;108893;1263;22536;-82
2022/07/17 09:45:22;;;;;;;1.80;0.50;;;;;;;19.74;45.51;97571.55;108602;1263;137185;-82
2022/07/17 09:48:07;;;;;;;2.00;0.80;;;;;;;19.66;45.26;97564.48;108802;1264;22604;-81
2022/07/17 09:50:43;;;;;;;2.20;0.90;;;;;;;19.10;45.89;97571.60;108816;1264;22689;-82
2022/07/17 09:53:19;;;;;;;2.20;1.00;;;;;;;18.52;46.34;97575.65;108819;1264;22804;-81
2022/07/17 09:55:57;;;;;;;3.00;0.90;;;;;;;18.27;46.65;97577.98;108624;1264;112892;-81
2022/07/17 09:58:44;;;;;;;3.80;1.30;;;;;;;18.73;47.63;97578.09;108819;1264;22643;-81
2022/07/17 10:01:22;;;;;;;2.20;1.00;;;;;;;19.52;47.38;97570.03;108881;1264;22528;-82
2022/07/17 10:04:06;;;;;;;4.50;1.30;;;;;;;20.12;46.40;97560.48;108807;1264;25373;-82
2022/07/17 10:06:40;;;;;;;3.30;0.80;;;;;;;20.28;45.18;97557.29;108594;1265;89421;-83
2022/07/17 10:09:13;;;;;;;3.60;0.90;;;;;;;20.31;44.91;97557.20;108749;1263;23163;-82
2022/07/17 10:11:54;;;;;;;1.20;0.90;;;;;;;20.29;44.58;97564.71;108780;1264;22600;-82
2022/07/17 10:14:34;;;;;;;1.40;0.60;;;;;;;20.35;44.32;97561.98;108556;1264;24187;-81
2022/07/17 10:17:18;;;;;;;1.20;0.80;;;;;;;20.10;44.48;97562.80;108631;1264;102635;-82
2022/07/17 10:19:56;;;;;;;4.40;0.80;;;;;;;19.97;44.68;97561.15;108842;1264;22532;-82
2022/07/17 10:22:41;;;;;;;3.90;1.00;;;;;;;20.23;44.78;97556.66;108894;1264;22551;-82
2022/07/17 10:25:19;;;;;;;3.00;1.10;;;;;;;20.15;44.23;97555.39;108618;1264;143846;-81
2022/07/17 10:27:57;;;;;;;1.80;0.70;;;;;;;20.04;44.86;97553.45;108767;1264;22526;-81
2022/07/17 10:30:33;;;;;;;3.20;0.80;;;;;;;19.41;45.53;97569.05;108775;1264;22532;-81
2022/07/17 10:33:20;;;;;;;4.70;1.00;;;;;;;18.68;46.64;97584.66;108783;1264;22521;-81
2022/07/17 10:35:52;;;;;;;3.80;1.00;;;;;;;18.31;47.52;97586.11;108592;1264;88942;-82
2022/07/17 10:38:27;;;;;;;2.70;0.90;;;;;;;18.60;48.62;97587.37;108771;1264;22541;-81
2022/07/17 10:41:05;;;;;;;1.90;0.80;;;;;;;19.19;48.06;97581.33;108818;1264;22579;-81
2022/07/17 10:43:50;;;;;;;2.70;0.80;;;;;;;19.45;47.31;97581.52;108790;1264;22538;-82
2022/07/17 10:46:25;;;;;;;2.00;0.80;;;;;;;19.49;45.48;97581.64;107268;1264;1792674;-82
2022/07/17 10:48:56;;;;;;;2.00;0.70;;;;;;;19.56;45.01;97579.24;108858;1265;25356;-81
2022/07/17 10:51:37;;;;;;;2.10;0.70;;;;;;;19.81;46.14;97578.39;108840;1263;22538;-81
2022/07/17 10:54:09;;;;;;;3.10;0.80;;;;;;;20.15;44.60;97576.65;108847;1264;22621;-81
2022/07/17 10:56:53;;;;;;;2.90;0.90;;;;;;;20.24;44.74;97575.70;108649;1264;101262;-81
2022/07/17 10:59:27;;;;;;;3.20;0.70;;;;;;;20.27;44.35;97577.85;108824;1263;22574;-81
2022/07/17 11:02:04;;;;;;;2.20;0.70;;;;;;;19.50;44.81;97590.59;108581;1264;22603;-81
2022/07/17 11:04:43;;;;;;;3.50;0.80;;;;;;;18.69;45.97;97593.13;108854;1262;23183;-82
2022/07/17 11:07:17;;;;;;;1.60;0.80;;;;;;;18.22;46.45;97595.89;108624;1263;113824;-81
2022/07/17 11:09:52;;;;;;;3.90;1.10;;;;;;;18.39;47.78;97587.20;108822;1264;22544;-81
2022/07/17 11:12:34;;;;;;;4.40;1.20;;;;;;;19.06;48.74;97573.70;108817;1264;24285;-81
2022/07/17 11:15:09;;;;;;;3.10;0.90;;;;;;;19.66;47.98;97574.70;108900;1265;22536;-82
2022/07/17 11:17:47;;;;;;;3.50;1.50;;;;;;;19.97;47.35;97578.70;108864;1264;22601;-81
2022/07/17 11:20:22;;;;;;;2.50;0.90;;;;;;;19.75;46.25;97577.11;108833;1265;22643;-81
2022/07/17 11:23:00;;;;;;;1.80;0.90;;;;;;;19.40;45.89;97582.64;108843;1264;23839;-81
2022/07/17 11:25:34;;;;;;;3.30;0.90;;;;;;;19.28;46.21;97578.98;108588;1263;138417;-81
2022/07/17 11:28:13;;;;;;;2.80;0.70;;;;;;;19.37;45.62;97582.60;108848;1265;22704;-81
2022/07/17 11:30:48;;;;;;;2.10;0.80;;;;;;;19.10;45.08;97577.20;108838;1264;22543;-81
2022/07/17 11:33:29;;;;;;;4.30;1.00;;;;;;;18.94;46.24;97592.34;108805;1265;24519;-81
2022/07/17 11:36:05;;;;;;;3.40;1.10;;;;;;;18.94;46.95;97587.56;108629;1265;105022;-80
2022/07/17 11:38:40;;;;;;;1.90;0.80;;;;;;;19.04;46.54;97593.09;108831;1264;22564;-81
2022/07/17 11:41:16;;;;;;;4.20;0.90;;;;;;;19.00;46.80;97587.57;108826;1265;24116;-81
2022/07/17 11:43:53;;;;;;;2.30;0.80;;;;;;;19.08;47.69;97589.85;108839;1265;25376;-81
2022/07/17 11:46:31;;;;;;;1.80;0.90;;;;;;;19.31;47.19;97589.00;104584;1265;5365627;-81
2022/07/17 11:49:07;;;;;;;2.40;0.60;;;;;;;19.52;47.26;97590.23;108858;1265;22582;-81
2022/07/17 11:51:48;;;;;;;1.30;0.50;;;;;;;19.73;46.70;97588.31;108836;1265;22556;-81
2022/07/17 11:54:19;;;;;;;4.20;0.80;;;;;;;20.00;46.23;97583.20;108863;1265;22543;-81
2022/07/17 11:56:57;;;;;;;3.90;0.90;;;;;;;20.23;46.15;97575.73;107120;1263;2011710;-81
2022/07/17 11:59:35;;;;;;;2.40;0.80;;;;;;;20.36;45.36;97570.58;108748;1264;22567;-81
2022/07/17 12:02:17;;;;;;;2.60;0.50;;;;;;;20.58;45.53;97566.23;108774;1265;24256;-81
2022/07/17 12:04:57;;;;;;;2.40;1.00;;;;;;;20.60;45.10;97564.42;108773;1265;22551;-81
2022/07/17 12:07:41;;;;;;;2.00;0.70;;;;;;;20.74;45.64;97568.77;108528;1265;102461;-81
2022/07/17 12:10:19;;;;;;;3.20;0.90;;;;;;;20.62;44.32;97572.13;108773;1265;22503;-81
2022/07/17 12:12:59;;;;;;;2.00;0.70;;;;;;;20.36;43.32;97565.73;108734;1265;22552;-81
2022/07/17 12:15:45;;;;;;;2.20;0.90;;;;;;;20.29;43.70;97561.35;108485;1265;87305;-81